KPIM/PIM METAR and TAF weather

Enter ICAO airport designator
Station Type Date Time Source
KPIM METAR 2023/02/06 18:15 UTC NOAA

KPIM 061815Z AUTO 06004KT 10SM CLR 18/M02 A3021 RMK AO2 T01811025


Station Type Date Time Source
KPIM Decoded METAR 2023/02/06 18:15 UTC NOAA

Station name not available
Feb 06, 2023 - 01:15 PM EST / 2023.02.06 1815 UTC
Wind: from the ENE (060 degrees) at 5 MPH (4 KT):0
Visibility: 10 mile(s):0
Sky conditions: clear
Temperature: 64.6 F (18.1 C)
Dew Point: 27.5 F (-2.5 C)
Relative Humidity: 24%
Pressure (altimeter): 30.21 in. Hg (1023 hPa)
ob: KPIM 061815Z AUTO 06004KT 10SM CLR 18/M02 A3021 RMK AO2 T01811025
cycle: 18

Station Type Date Time Source
KPIM TAF UTC NOAA

Error!

Example: see airport list